Terminal Aerodrome Forecast
Issued by NWS

Home | Current Version | Previous Version | Text Only | Print | Product List | Glossary On
Versions: 1 2 3 4 5 6 7 8 9 10 11 12 13 14 15 16 17 18 19 20 21
000
FTUS45 KREV 232334
TAFRNO
TAF
KRNO 232334Z 2400/2424 35009KT P6SM VCSH FEW040 SCT050
     FM240500 VRB04KT P6SM SCT050
     FM242100 22006KT P6SM BKN250=

USA.gov is the U.S. government's official web portal to all federal, state and local government web resources and services.